Terminal Aerodrome Forecast
Issued by NWS Charleston, WV

Current Version | Previous Version | Text Only | Print | Product List | Glossary Off
Versions: 1 2 3 4 5 6 7 8 9 10 11 12 13 14 15 16 17 18 19 20 21 22 23 24 25 26 27

000
FTUS41 KRLX 012200 AAB
TAFCRW
TAF AMD
KCRW 012224Z 0122/0218 22007KT P6SM SCT040 BKN080
     FM020000 VRB03KT P6SM SKC
     FM020200 00000KT P6SM BKN080
     FM021500 23008KT P6SM VCTS BKN035CB=

USA.gov is the U.S. government's official web portal to all federal, state and local government web resources and services.